Time;durP1;ratioP1;P1;durP2;ratioP2;P2;SDS_P1;SDS_P2;PMS_P1;PMS_P2;Temp;Humidity;BMP_temperature;BMP_pressure;BME280_temperature;BME280_humidity;BME280_pressure;Samples;Min_cycle;Max_cycle;Signal;HPM_P1;HPM_P2
2024/02/07 00:01:53;;;;;;;7.00;1.80;;;14.30;99.90;;;;;;5058900;28;21477;-76
2024/02/07 00:04:19;;;;;;;2.90;1.43;;;14.30;99.90;;;;;;5085847;28;20668;-76
2024/02/07 00:06:44;;;;;;;5.07;1.80;;;14.30;99.90;;;;;;5073224;28;20179;-76
2024/02/07 00:09:10;;;;;;;4.73;1.50;;;14.30;99.90;;;;;;5093212;28;20721;-75
2024/02/07 00:11:36;;;;;;;6.87;2.20;;;14.30;99.90;;;;;;5074926;28;20264;-75
2024/02/07 00:14:02;;;;;;;4.37;1.53;;;14.30;99.90;;;;;;5074783;28;20176;-76
2024/02/07 00:16:27;;;;;;;3.53;1.80;;;14.30;99.90;;;;;;5082877;28;20709;-75
2024/02/07 00:18:53;;;;;;;3.70;1.83;;;14.20;99.90;;;;;;5086872;28;20210;-76
2024/02/07 00:21:19;;;;;;;3.90;2.00;;;14.20;99.90;;;;;;5074914;28;20238;-74
2024/02/07 00:23:44;;;;;;;5.13;1.70;;;14.20;99.90;;;;;;5061422;28;20179;-75
2024/02/07 00:26:10;;;;;;;5.20;1.90;;;14.20;99.90;;;;;;5057550;28;20184;-74
2024/02/07 00:28:36;;;;;;;4.07;1.80;;;14.20;99.90;;;;;;5070724;28;20215;-74
2024/02/07 00:31:04;;;;;;;3.90;1.57;;;14.20;99.90;;;;;;5088086;28;20209;-75
2024/02/07 00:33:30;;;;;;;4.90;1.63;;;14.10;99.90;;;;;;5092353;28;20573;-75
2024/02/07 00:35:56;;;;;;;3.93;1.63;;;14.00;99.90;;;;;;5092837;28;20596;-75
2024/02/07 00:38:22;;;;;;;5.17;1.80;;;14.00;99.90;;;;;;5072094;28;20665;-75
2024/02/07 00:40:47;;;;;;;4.97;1.77;;;14.00;99.90;;;;;;5041138;28;20210;-75
2024/02/07 00:43:15;;;;;;;3.50;1.60;;;13.90;99.90;;;;;;5074087;28;20590;-74
2024/02/07 00:45:41;;;;;;;6.50;2.28;;;13.90;99.90;;;;;;5066439;28;20222;-74
2024/02/07 00:48:07;;;;;;;4.57;1.97;;;13.80;99.90;;;;;;5074528;28;20265;-74
2024/02/07 00:50:33;;;;;;;3.60;1.30;;;13.80;99.90;;;;;;5092313;28;20582;-74
2024/02/07 00:52:59;;;;;;;4.97;1.60;;;13.70;99.90;;;;;;5084165;28;20179;-75
2024/02/07 00:55:25;;;;;;;3.77;1.50;;;13.70;99.90;;;;;;5091824;28;20179;-74
2024/02/07 00:57:51;;;;;;;4.47;1.40;;;13.70;99.90;;;;;;5074180;28;20191;-74
2024/02/07 01:00:18;;;;;;;3.93;1.80;;;13.60;99.90;;;;;;5074055;28;20622;-74
2024/02/07 01:02:45;;;;;;;3.57;1.77;;;13.60;99.90;;;;;;5074046;28;20613;-75
2024/02/07 01:05:11;;;;;;;4.80;1.90;;;13.60;99.90;;;;;;5056986;28;20582;-75
2024/02/07 01:07:37;;;;;;;4.70;1.50;;;13.60;99.90;;;;;;5056972;28;20586;-75
2024/02/07 01:10:04;;;;;;;5.10;1.27;;;13.60;99.90;;;;;;5073876;28;20574;-75
2024/02/07 01:12:29;;;;;;;3.60;1.40;;;13.60;99.90;;;;;;5073971;28;21086;-76
2024/02/07 01:14:55;;;;;;;4.17;1.37;;;13.60;99.90;;;;;;5070625;28;20599;-76
2024/02/07 01:17:20;;;;;;;3.00;1.83;;;13.60;99.90;;;;;;5070853;28;20564;-76
2024/02/07 01:19:51;;;;;;;2.50;1.20;;;13.60;99.90;;;;;;5091559;28;20211;-75
2024/02/07 01:22:17;;;;;;;6.87;1.40;;;13.60;99.90;;;;;;5073979;28;20301;-76
2024/02/07 01:24:42;;;;;;;4.97;1.43;;;13.60;99.90;;;;;;5056339;28;20689;-76
2024/02/07 01:27:10;;;;;;;3.13;1.73;;;13.60;99.90;;;;;;5084419;28;20183;-76
2024/02/07 01:29:36;;;;;;;3.57;1.20;;;13.60;99.90;;;;;;5072457;28;20214;-76
2024/02/07 01:32:02;;;;;;;2.40;1.50;;;13.60;99.90;;;;;;5073641;28;20600;-76
2024/02/07 01:34:28;;;;;;;3.50;1.37;;;13.50;99.90;;;;;;5072940;28;20581;-76
2024/02/07 01:36:54;;;;;;;3.43;1.67;;;13.50;99.90;;;;;;5085844;28;20600;-76
2024/02/07 01:39:19;;;;;;;4.10;2.27;;;13.50;99.90;;;;;;5069659;28;20192;-76
2024/02/07 01:41:57;;;;;;;3.13;1.70;;;13.40;99.90;;;;;;5073712;28;20582;-76
2024/02/07 01:44:24;;;;;;;7.20;1.60;;;13.40;99.90;;;;;;5090986;28;20185;-76
2024/02/07 01:46:51;;;;;;;2.77;1.80;;;13.40;99.90;;;;;;5073130;28;20589;-75
2024/02/07 01:49:18;;;;;;;3.30;2.40;;;13.40;99.90;;;;;;5072933;28;20636;-75
2024/02/07 01:51:46;;;;;;;7.00;2.72;;;13.30;99.90;;;;;;5073157;28;20573;-76
2024/02/07 01:54:12;;;;;;;4.03;1.87;;;13.30;99.90;;;;;;5072805;28;20203;-76
2024/02/07 01:56:38;;;;;;;3.70;1.77;;;13.30;99.90;;;;;;5072852;28;20590;-75
2024/02/07 01:59:06;;;;;;;3.90;2.30;;;13.30;99.90;;;;;;5073120;28;21009;-76
2024/02/07 02:01:36;;;;;;;4.53;2.10;;;13.30;99.90;;;;;;5037575;28;20668;-75
2024/02/07 02:04:02;;;;;;;4.90;2.10;;;13.20;99.90;;;;;;5067148;28;20685;-75
2024/02/07 02:06:28;;;;;;;3.80;2.27;;;13.20;99.90;;;;;;5090974;28;20731;-75
2024/02/07 02:08:54;;;;;;;3.63;1.93;;;13.20;99.90;;;;;;5073012;28;20635;-75
2024/02/07 02:11:28;;;;;;;5.60;1.90;;;13.20;99.90;;;;;;5072674;28;20574;-75
2024/02/07 02:13:54;;;;;;;8.23;2.50;;;13.20;99.90;;;;;;5065786;28;20585;-75
2024/02/07 02:16:20;;;;;;;3.80;1.97;;;13.10;99.90;;;;;;5072588;28;20642;-75
2024/02/07 02:18:46;;;;;;;6.57;2.50;;;13.10;99.90;;;;;;5072837;28;20203;-75
2024/02/07 02:21:22;;;;;;;6.07;1.92;;;13.10;99.90;;;;;;5072705;28;20203;-73
2024/02/07 02:24:26;;;;;;;4.90;2.05;;;13.10;99.90;;;;;;5090386;28;20514;-73
2024/02/07 02:27:23;;;;;;;9.10;2.30;;;13.10;99.90;;;;;;5065357;28;20167;-73
2024/02/07 02:29:58;;;;;;;4.43;1.67;;;13.00;99.90;;;;;;5082424;28;20617;-73
2024/02/07 02:32:26;;;;;;;3.28;1.42;;;13.00;99.90;;;;;;5082682;28;20186;-73
2024/02/07 02:34:53;;;;;;;4.28;1.75;;;13.00;99.90;;;;;;5063698;28;20183;-74
2024/02/07 02:37:21;;;;;;;3.15;1.90;;;12.90;99.90;;;;;;5090553;28;20183;-73
2024/02/07 02:39:49;;;;;;;4.53;1.93;;;12.90;99.90;;;;;;5064719;28;20284;-73
2024/02/07 02:42:15;;;;;;;3.00;1.80;;;12.90;99.90;;;;;;5072513;28;20588;-73
2024/02/07 02:44:41;;;;;;;3.38;1.70;;;12.90;99.90;;;;;;5087037;28;20586;-73
2024/02/07 02:47:07;;;;;;;5.53;1.63;;;12.90;99.90;;;;;;5079074;28;20167;-73
2024/02/07 02:49:36;;;;;;;5.00;2.10;;;12.80;99.90;;;;;;5089794;28;21206;-73
2024/02/07 02:52:03;;;;;;;5.30;1.63;;;12.90;99.90;;;;;;5076725;28;21013;-73
2024/02/07 02:54:32;;;;;;;8.30;2.00;;;12.90;99.90;;;;;;5051907;28;20597;-73
2024/02/07 02:57:00;;;;;;;5.75;1.60;;;12.80;99.90;;;;;;5064822;28;20660;-73
2024/02/07 02:59:27;;;;;;;6.18;2.17;;;12.80;99.90;;;;;;5090181;28;20195;-73
2024/02/07 03:01:53;;;;;;;5.88;2.03;;;12.80;99.90;;;;;;5089930;28;20171;-73
2024/02/07 03:04:21;;;;;;;4.40;1.50;;;12.80;99.90;;;;;;5073923;28;20181;-75
2024/02/07 03:07:02;;;;;;;6.33;1.30;;;12.80;99.90;;;;;;5072020;28;20589;-75
2024/02/07 03:09:30;;;;;;;3.35;1.35;;;12.80;99.90;;;;;;5081856;28;20966;-75
2024/02/07 03:11:56;;;;;;;4.30;1.55;;;12.90;99.90;;;;;;5071997;28;20171;-75
2024/02/07 03:14:21;;;;;;;5.07;1.50;;;12.90;99.90;;;;;;5072043;28;20179;-75
2024/02/07 03:16:47;;;;;;;3.23;1.20;;;12.90;99.90;;;;;;5068810;28;20188;-75
2024/02/07 03:19:13;;;;;;;10.57;2.10;;;12.80;99.90;;;;;;5060266;28;20678;-74
2024/02/07 03:21:39;;;;;;;1.80;1.10;;;12.80;99.90;;;;;;5062286;28;20204;-73
2024/02/07 03:24:07;;;;;;;3.33;1.60;;;12.80;99.90;;;;;;5071888;28;20176;-73
2024/02/07 03:26:33;;;;;;;3.33;1.45;;;12.80;99.90;;;;;;5070858;28;20896;-73
2024/02/07 03:28:59;;;;;;;3.97;1.33;;;12.80;99.90;;;;;;5059958;28;20226;-73
2024/02/07 03:31:26;;;;;;;2.40;1.07;;;12.80;99.90;;;;;;5078433;28;21147;-74
2024/02/07 03:33:51;;;;;;;4.40;1.70;;;12.80;99.90;;;;;;5071486;28;20240;-74
2024/02/07 03:36:17;;;;;;;2.30;1.40;;;12.80;99.90;;;;;;5090228;28;20179;-73
2024/02/07 03:38:44;;;;;;;2.93;1.20;;;12.80;99.90;;;;;;5069278;28;20198;-73
2024/02/07 03:41:10;;;;;;;2.88;1.30;;;12.80;99.90;;;;;;5076202;28;20282;-73
2024/02/07 03:43:36;;;;;;;2.10;1.10;;;12.80;99.90;;;;;;5089815;28;20263;-74
2024/02/07 03:46:05;;;;;;;2.00;1.20;;;12.80;99.90;;;;;;5055274;28;20594;-74
2024/02/07 03:48:37;;;;;;;3.55;1.50;;;12.80;99.90;;;;;;5071838;28;20705;-73
2024/02/07 03:51:03;;;;;;;3.17;1.10;;;12.80;99.90;;;;;;5072184;28;20546;-74
2024/02/07 03:53:31;;;;;;;3.00;1.08;;;12.80;99.90;;;;;;5071309;28;21177;-75
2024/02/07 03:55:57;;;;;;;4.33;1.80;;;12.80;99.90;;;;;;5082529;28;20195;-74
2024/02/07 03:58:25;;;;;;;3.45;1.20;;;12.80;99.90;;;;;;5046825;28;20620;-75
2024/02/07 04:00:50;;;;;;;3.90;1.20;;;12.80;99.90;;;;;;5086591;28;20564;-75
2024/02/07 04:03:18;;;;;;;2.17;1.00;;;12.80;99.90;;;;;;5069541;28;20168;-75
2024/02/07 04:05:44;;;;;;;3.63;1.05;;;12.80;99.90;;;;;;5064870;28;20218;-73
2024/02/07 04:08:10;;;;;;;2.00;0.93;;;12.80;99.90;;;;;;5081905;28;20279;-74
2024/02/07 04:10:41;;;;;;;2.57;0.90;;;12.80;99.90;;;;;;5091528;28;20839;-73
2024/02/07 05:15:53;;;;;;;1.90;1.08;;;12.40;99.90;;;;;;5091836;28;20626;-75
2024/02/07 05:18:19;;;;;;;2.37;1.00;;;12.40;99.90;;;;;;5074573;28;20282;-75
2024/02/07 05:20:46;;;;;;;1.70;1.00;;;12.40;99.90;;;;;;5068535;28;20638;-74
2024/02/07 05:23:12;;;;;;;4.47;1.00;;;12.40;99.90;;;;;;5077168;28;20229;-75
2024/02/07 05:25:38;;;;;;;2.60;1.17;;;12.40;99.90;;;;;;5063501;28;20172;-75
2024/02/07 05:28:05;;;;;;;3.27;1.80;;;12.40;99.90;;;;;;5068647;28;20290;-74
2024/02/07 05:30:30;;;;;;;3.15;1.60;;;12.30;99.90;;;;;;5069947;28;20186;-75
2024/02/07 05:32:56;;;;;;;4.07;1.20;;;12.10;99.90;;;;;;5069744;28;20599;-75
2024/02/07 05:35:22;;;;;;;1.80;1.00;;;11.90;99.90;;;;;;5077727;28;20172;-73
2024/02/07 05:37:49;;;;;;;3.50;0.97;;;11.70;99.90;;;;;;5090063;28;20774;-73
2024/02/07 05:40:14;;;;;;;2.33;1.27;;;11.40;99.90;;;;;;5091375;28;20253;-73
2024/02/07 05:42:40;;;;;;;2.60;0.80;;;11.00;99.90;;;;;;5091420;28;20180;-73
2024/02/07 05:45:06;;;;;;;1.40;0.70;;;10.70;99.90;;;;;;5067626;28;20582;-73
2024/02/07 05:47:32;;;;;;;2.40;0.85;;;10.40;99.90;;;;;;5069601;28;20187;-73
2024/02/07 05:49:58;;;;;;;3.67;0.70;;;10.10;99.90;;;;;;5073051;28;20520;-73
2024/02/07 05:52:26;;;;;;;1.63;0.70;;;9.80;99.90;;;;;;5091474;28;20230;-74
2024/02/07 05:54:55;;;;;;;1.65;0.57;;;9.60;99.90;;;;;;5072712;28;20581;-75
2024/02/07 05:57:20;;;;;;;2.50;0.60;;;9.40;99.90;;;;;;5073026;28;20535;-75
2024/02/07 05:59:46;;;;;;;1.60;0.60;;;9.30;99.90;;;;;;5072835;28;20217;-75
2024/02/07 06:02:12;;;;;;;2.30;0.60;;;9.10;99.90;;;;;;5073331;28;20581;-75
2024/02/07 06:04:39;;;;;;;1.43;0.60;;;9.00;99.90;;;;;;5092621;28;20207;-75
2024/02/07 06:07:04;;;;;;;2.53;0.70;;;8.90;99.90;;;;;;5072813;28;20584;-74
2024/02/07 06:09:30;;;;;;;3.43;0.60;;;8.70;99.90;;;;;;5073238;28;20183;-74
2024/02/07 06:11:56;;;;;;;1.57;0.60;;;8.60;99.90;;;;;;5072823;28;20168;-74
2024/02/07 06:14:21;;;;;;;2.70;0.80;;;8.50;99.90;;;;;;5072141;28;20172;-77
2024/02/07 06:16:47;;;;;;;3.53;1.00;;;8.40;99.90;;;;;;5090866;28;20266;-76
2024/02/07 06:19:13;;;;;;;4.43;0.80;;;8.30;99.90;;;;;;5085237;28;20292;-74
2024/02/07 06:21:39;;;;;;;1.73;0.87;;;8.30;99.90;;;;;;5053395;28;20302;-75
2024/02/07 06:24:05;;;;;;;1.60;0.77;;;8.20;99.90;;;;;;5086382;28;20179;-75
2024/02/07 06:26:30;;;;;;;2.70;0.80;;;8.10;99.90;;;;;;5087110;28;20589;-75
2024/02/07 06:28:56;;;;;;;1.90;0.80;;;8.10;99.90;;;;;;5069546;28;20618;-75
2024/02/07 06:31:21;;;;;;;2.67;1.00;;;8.10;99.90;;;;;;5079156;28;20202;-75
2024/02/07 06:33:47;;;;;;;2.30;1.00;;;8.00;99.90;;;;;;5069256;28;20188;-75
2024/02/07 06:36:13;;;;;;;1.70;0.90;;;8.00;99.90;;;;;;5058037;28;20232;-75
2024/02/07 06:38:39;;;;;;;3.23;1.10;;;8.00;99.90;;;;;;5073408;28;20222;-75
2024/02/07 06:41:04;;;;;;;1.83;1.00;;;8.00;99.90;;;;;;5070614;28;20199;-75
2024/02/07 06:43:30;;;;;;;2.37;1.30;;;7.90;99.90;;;;;;5060057;28;20200;-75
2024/02/07 06:45:57;;;;;;;2.70;1.70;;;7.90;99.90;;;;;;5087818;28;20230;-75
2024/02/07 06:48:23;;;;;;;3.40;2.20;;;7.90;99.90;;;;;;5067492;28;20282;-75
2024/02/07 06:50:50;;;;;;;3.00;1.53;;;7.90;99.90;;;;;;5072365;28;20266;-75
2024/02/07 06:53:16;;;;;;;2.45;1.60;;;7.90;99.90;;;;;;5071744;28;20199;-74
2024/02/07 06:55:42;;;;;;;2.92;1.45;;;7.90;99.90;;;;;;5062908;28;20182;-74
2024/02/07 06:58:07;;;;;;;3.10;2.10;;;7.80;99.90;;;;;;5082631;28;20266;-72
2024/02/07 07:00:33;;;;;;;2.50;1.83;;;7.90;99.90;;;;;;5072573;28;20194;-73
2024/02/07 07:02:59;;;;;;;2.73;1.90;;;7.90;99.90;;;;;;5067709;28;20237;-73
2024/02/07 07:05:25;;;;;;;2.10;1.60;;;7.90;99.90;;;;;;5063241;28;20168;-73
2024/02/07 07:07:50;;;;;;;2.50;1.83;;;7.90;99.90;;;;;;5053622;28;20614;-72
2024/02/07 07:10:16;;;;;;;2.33;1.47;;;7.90;99.90;;;;;;5090222;28;20654;-72
2024/02/07 07:12:42;;;;;;;2.83;1.90;;;7.90;99.90;;;;;;5089755;28;20266;-73
2024/02/07 07:15:08;;;;;;;2.50;2.30;;;7.90;99.90;;;;;;5063832;28;20175;-72
2024/02/07 07:17:33;;;;;;;3.53;2.25;;;7.90;99.90;;;;;;5090148;28;20183;-73
2024/02/07 07:19:59;;;;;;;2.33;1.67;;;7.80;99.90;;;;;;5089939;28;20248;-72
2024/02/07 07:22:25;;;;;;;2.67;2.03;;;7.90;99.90;;;;;;5090421;28;20522;-72
2024/02/07 07:24:50;;;;;;;3.80;2.50;;;7.80;99.90;;;;;;5071188;28;20642;-73
2024/02/07 07:27:16;;;;;;;3.90;2.10;;;7.80;99.90;;;;;;5090160;28;20176;-72
2024/02/07 07:29:42;;;;;;;3.93;1.90;;;7.80;99.90;;;;;;5048367;28;20196;-73
2024/02/07 07:32:09;;;;;;;2.77;1.83;;;7.80;99.90;;;;;;5072316;28;20657;-72
2024/02/07 07:34:35;;;;;;;3.47;2.03;;;7.90;99.90;;;;;;5068580;28;20168;-72
2024/02/07 07:37:01;;;;;;;2.25;1.90;;;7.80;99.90;;;;;;5065845;28;20337;-73
2024/02/07 07:39:27;;;;;;;3.63;2.10;;;7.90;99.90;;;;;;5093524;28;20353;-72
2024/02/07 07:41:53;;;;;;;2.90;2.30;;;7.90;99.90;;;;;;5070796;28;20292;-72
2024/02/07 07:44:19;;;;;;;2.60;1.70;;;7.90;99.90;;;;;;5075172;28;20933;-72
2024/02/07 07:46:45;;;;;;;3.10;2.20;;;7.90;99.90;;;;;;5067144;28;20183;-73
2024/02/07 07:49:11;;;;;;;4.65;2.92;;;7.90;99.90;;;;;;5093518;28;20681;-73
2024/02/07 07:51:37;;;;;;;2.22;1.90;;;7.90;99.90;;;;;;5058849;28;20734;-74
2024/02/07 07:54:03;;;;;;;2.72;1.48;;;7.90;99.90;;;;;;5092717;28;20560;-72
2024/02/07 07:56:31;;;;;;;2.57;1.47;;;7.90;99.90;;;;;;5051469;28;20697;-73
2024/02/07 07:59:00;;;;;;;4.07;1.45;;;7.90;99.90;;;;;;5084584;28;20681;-73
2024/02/07 08:01:27;;;;;;;3.20;2.05;;;7.90;99.90;;;;;;5073147;28;20203;-73
2024/02/07 08:03:53;;;;;;;2.17;1.50;;;7.90;99.90;;;;;;5074529;28;20206;-73
2024/02/07 08:06:19;;;;;;;5.68;1.60;;;7.90;99.90;;;;;;5058464;28;20175;-73
2024/02/07 08:08:45;;;;;;;2.28;1.60;;;8.00;99.90;;;;;;5066423;28;20192;-72
2024/02/07 08:11:11;;;;;;;4.70;1.97;;;8.00;99.90;;;;;;5071609;28;20180;-73
2024/02/07 08:13:36;;;;;;;3.80;1.87;;;8.00;99.90;;;;;;5064968;28;20602;-73
2024/02/07 08:16:02;;;;;;;5.63;1.80;;;8.00;99.90;;;;;;5092628;28;20593;-73
2024/02/07 08:18:30;;;;;;;5.30;1.83;;;8.00;99.90;;;;;;5092768;28;20253;-73
2024/02/07 08:20:56;;;;;;;2.92;1.80;;;8.00;99.90;;;;;;5074733;28;20206;-72
2024/02/07 08:23:22;;;;;;;3.22;1.63;;;8.00;99.90;;;;;;5091711;28;20176;-73
2024/02/07 08:25:47;;;;;;;3.50;1.90;;;8.00;99.90;;;;;;5093020;28;20179;-73
2024/02/07 08:28:13;;;;;;;3.00;1.70;;;7.90;99.90;;;;;;5072534;28;20655;-73
2024/02/07 08:30:39;;;;;;;3.60;1.43;;;8.00;99.90;;;;;;5092968;28;20175;-73
2024/02/07 08:33:05;;;;;;;5.50;2.10;;;8.00;99.90;;;;;;5073033;28;20585;-73
2024/02/07 08:35:31;;;;;;;4.93;1.90;;;8.00;99.90;;;;;;5089021;28;20251;-73
2024/02/07 08:37:58;;;;;;;3.67;2.40;;;8.00;99.90;;;;;;5092287;28;20621;-73
2024/02/07 08:40:28;;;;;;;2.13;1.30;;;8.00;99.90;;;;;;5072068;28;20294;-73
2024/02/07 08:42:54;;;;;;;2.30;1.30;;;8.10;99.90;;;;;;5092485;28;20713;-73
2024/02/07 08:45:23;;;;;;;2.83;1.60;;;8.10;99.90;;;;;;5092146;28;20251;-73
2024/02/07 08:47:49;;;;;;;3.35;2.00;;;8.20;99.90;;;;;;5086206;28;20945;-73
2024/02/07 08:50:15;;;;;;;2.75;1.55;;;8.20;99.90;;;;;;5074090;28;20206;-73
2024/02/07 08:52:40;;;;;;;2.80;1.60;;;8.20;99.90;;;;;;5049713;28;20177;-73
2024/02/07 08:55:10;;;;;;;3.13;1.67;;;8.20;99.90;;;;;;5073477;28;20616;-73
2024/02/07 08:57:37;;;;;;;2.10;1.30;;;8.30;99.90;;;;;;5068673;28;20586;-73
2024/02/07 09:00:04;;;;;;;3.53;1.50;;;8.30;99.90;;;;;;5072946;28;20203;-73
2024/02/07 09:02:29;;;;;;;2.35;1.40;;;8.30;99.90;;;;;;5067433;28;20203;-73
2024/02/07 09:04:56;;;;;;;1.90;1.10;;;8.30;99.90;;;;;;5069389;28;20256;-73
2024/02/07 09:07:22;;;;;;;2.67;1.20;;;8.30;99.90;;;;;;5073864;28;20167;-73
2024/02/07 09:09:48;;;;;;;3.80;1.15;;;8.30;99.90;;;;;;5073355;28;20261;-73
2024/02/07 09:12:14;;;;;;;3.60;1.00;;;8.30;99.90;;;;;;5091971;28;20180;-73
2024/02/07 09:14:39;;;;;;;5.03;1.20;;;8.20;99.90;;;;;;5072063;28;20179;-73
2024/02/07 09:17:05;;;;;;;2.73;1.10;;;8.20;99.90;;;;;;5051203;28;20254;-73
2024/02/07 09:19:31;;;;;;;1.80;1.00;;;8.20;99.90;;;;;;5073638;28;20195;-73
2024/02/07 09:21:56;;;;;;;2.03;0.90;;;8.20;99.90;;;;;;5066231;28;20219;-73
2024/02/07 09:24:22;;;;;;;6.27;1.20;;;8.20;99.90;;;;;;5073390;28;20164;-73
2024/02/07 09:26:49;;;;;;;4.23;0.93;;;8.20;99.90;;;;;;5085574;28;20588;-73
2024/02/07 09:29:15;;;;;;;3.08;1.00;;;8.20;99.90;;;;;;5073284;28;20203;-72
2024/02/07 09:31:40;;;;;;;4.60;1.02;;;8.20;99.90;;;;;;5073178;28;20171;-72
2024/02/07 09:34:06;;;;;;;4.87;1.00;;;8.10;99.90;;;;;;5090930;28;20183;-73
2024/02/07 09:36:38;;;;;;;3.13;0.97;;;8.10;99.90;;;;;;5053392;28;20180;-72
2024/02/07 09:39:04;;;;;;;3.42;0.80;;;8.10;99.90;;;;;;5090326;28;20290;-72
2024/02/07 09:41:32;;;;;;;7.23;1.60;;;8.00;99.90;;;;;;5073291;28;20286;-73
2024/02/07 09:44:01;;;;;;;5.82;1.23;;;8.00;99.90;;;;;;5090542;28;20586;-72
2024/02/07 09:46:33;;;;;;;7.97;1.20;;;7.90;99.90;;;;;;5071147;28;20171;-72
2024/02/07 09:48:59;;;;;;;5.03;1.13;;;7.90;99.90;;;;;;5082787;28;20696;-72
2024/02/07 09:51:26;;;;;;;3.55;1.17;;;7.80;99.90;;;;;;5091342;28;20266;-73
2024/02/07 09:53:51;;;;;;;1.95;1.27;;;7.80;99.90;;;;;;5072658;28;20183;-72
2024/02/07 09:56:18;;;;;;;5.57;1.53;;;7.80;99.90;;;;;;5073194;28;20552;-72
2024/02/07 09:58:44;;;;;;;4.32;1.15;;;7.80;99.90;;;;;;5081358;28;20203;-73
2024/02/07 10:01:13;;;;;;;4.90;1.10;;;7.90;99.90;;;;;;5071634;28;20195;-73
2024/02/07 10:03:42;;;;;;;4.80;1.58;;;7.90;99.90;;;;;;5072117;28;20179;-73
2024/02/07 10:06:09;;;;;;;4.35;1.55;;;7.90;99.90;;;;;;5053441;28;20198;-73
2024/02/07 10:08:36;;;;;;;2.38;1.10;;;7.90;99.90;;;;;;5072211;28;20202;-73
2024/02/07 10:11:02;;;;;;;5.95;1.30;;;8.00;99.90;;;;;;5066901;28;20187;-73
2024/02/07 10:13:28;;;;;;;3.75;1.40;;;8.00;99.90;;;;;;5089820;28;20167;-72
2024/02/07 10:15:54;;;;;;;5.50;1.40;;;8.00;99.90;;;;;;5072343;28;20234;-73
2024/02/07 10:18:20;;;;;;;5.23;1.60;;;8.10;99.90;;;;;;5088179;28;20191;-73
2024/02/07 10:20:55;;;;;;;4.60;1.20;;;8.10;99.90;;;;;;5072901;28;20218;-72
2024/02/07 10:23:21;;;;;;;3.22;1.40;;;8.10;99.90;;;;;;5041139;28;20190;-73
2024/02/07 10:25:52;;;;;;;3.78;1.05;;;8.10;99.90;;;;;;5072708;28;20262;-73
2024/02/07 10:28:18;;;;;;;5.35;1.30;;;8.10;99.90;;;;;;5064242;28;20341;-73
2024/02/07 10:30:54;;;;;;;3.67;0.90;;;8.10;99.90;;;;;;5050071;28;20689;-73
2024/02/07 10:33:20;;;;;;;2.50;1.00;;;8.20;99.90;;;;;;5089975;28;20601;-73
2024/02/07 10:35:47;;;;;;;3.97;0.87;;;8.20;99.90;;;;;;5090530;28;20171;-73
2024/02/07 10:38:12;;;;;;;4.03;1.42;;;8.10;99.90;;;;;;5082701;28;20566;-73
2024/02/07 10:40:39;;;;;;;3.67;1.00;;;8.10;99.90;;;;;;5072026;28;20207;-73
2024/02/07 10:43:06;;;;;;;3.20;1.25;;;8.10;99.90;;;;;;5063451;28;20183;-73
2024/02/07 10:45:32;;;;;;;3.17;1.20;;;8.00;99.90;;;;;;5071823;28;20176;-73
2024/02/07 10:47:57;;;;;;;5.30;1.90;;;8.00;99.90;;;;;;5090094;28;20195;-72
2024/02/07 10:50:23;;;;;;;7.10;1.40;;;7.90;99.90;;;;;;5072288;28;20187;-72
2024/02/07 10:52:49;;;;;;;5.80;2.20;;;7.80;99.90;;;;;;5090522;28;20240;-72
2024/02/07 10:55:16;;;;;;;2.85;1.08;;;7.80;99.90;;;;;;5089840;28;20175;-73
2024/02/07 10:57:48;;;;;;;4.82;1.33;;;7.70;99.90;;;;;;5054948;28;20232;-73
2024/02/07 11:00:14;;;;;;;8.20;1.00;;;7.60;99.90;;;;;;5072001;28;20191;-72
2024/02/07 11:02:41;;;;;;;2.85;1.42;;;7.60;99.90;;;;;;5072225;28;20756;-72
2024/02/07 11:05:08;;;;;;;2.33;0.98;;;7.50;99.90;;;;;;5068092;28;20180;-72
2024/02/07 11:07:34;;;;;;;3.17;1.20;;;7.50;99.90;;;;;;5071918;28;20712;-72
2024/02/07 11:10:00;;;;;;;4.70;1.13;;;7.50;99.90;;;;;;5071909;28;20194;-72
2024/02/07 11:12:27;;;;;;;3.22;0.90;;;7.40;99.90;;;;;;5075059;28;20190;-72
2024/02/07 11:14:54;;;;;;;2.47;0.90;;;7.40;99.90;;;;;;5075244;28;20167;-72
2024/02/07 11:17:20;;;;;;;4.22;0.90;;;7.40;99.90;;;;;;5068055;28;20189;-72
2024/02/07 11:19:49;;;;;;;3.87;0.97;;;7.40;99.90;;;;;;5093605;28;20736;-73
2024/02/07 11:22:20;;;;;;;5.32;0.90;;;7.40;99.90;;;;;;5093784;28;20175;-72
2024/02/07 11:24:48;;;;;;;2.00;0.70;;;7.50;99.90;;;;;;5093727;28;20224;-72
2024/02/07 11:27:14;;;;;;;2.22;0.80;;;7.50;99.90;;;;;;5092628;28;20175;-73
2024/02/07 11:29:43;;;;;;;4.30;1.02;;;7.50;99.90;;;;;;5075639;28;20203;-72
2024/02/07 11:32:10;;;;;;;2.20;1.15;;;7.50;99.90;;;;;;5094144;28;20190;-72
2024/02/07 11:34:42;;;;;;;2.83;0.73;;;7.50;99.90;;;;;;5069629;28;20543;-72
2024/02/07 11:37:11;;;;;;;2.80;1.00;;;7.60;99.90;;;;;;5092299;28;20180;-73
2024/02/07 11:39:42;;;;;;;2.17;0.63;;;7.60;99.90;;;;;;5075868;28;20188;-72
2024/02/07 11:42:12;;;;;;;2.45;0.70;;;7.60;99.90;;;;;;5075503;28;20543;-73
2024/02/07 11:44:52;;;;;;;2.85;0.90;;;7.60;99.90;;;;;;5058686;28;20179;-72
2024/02/07 11:47:24;;;;;;;1.75;0.70;;;7.70;99.90;;;;;;5093670;28;20175;-72
2024/02/07 11:49:57;;;;;;;1.30;0.57;;;7.70;99.90;;;;;;5093837;28;20192;-73
2024/02/07 11:52:28;;;;;;;1.30;0.60;;;7.70;99.90;;;;;;5075611;28;20258;-73
2024/02/07 11:54:59;;;;;;;3.17;1.50;;;7.70;99.90;;;;;;5074778;28;20213;-74
2024/02/07 11:57:25;;;;;;;2.42;0.70;;;7.80;99.90;;;;;;5085737;28;20606;-73
2024/02/07 11:59:51;;;;;;;2.00;0.57;;;7.80;99.90;;;;;;5093706;28;20286;-73
2024/02/07 12:02:20;;;;;;;3.00;0.70;;;7.70;99.90;;;;;;5066783;28;20207;-73
2024/02/07 12:04:45;;;;;;;2.78;0.60;;;7.70;99.90;;;;;;5081885;28;20543;-73
2024/02/07 12:07:13;;;;;;;1.70;0.60;;;7.70;99.90;;;;;;5074200;28;20183;-73
2024/02/07 12:09:39;;;;;;;1.95;0.75;;;7.70;99.90;;;;;;5092874;28;20612;-72
2024/02/07 12:12:11;;;;;;;1.33;0.60;;;7.70;99.90;;;;;;5078094;28;20550;-73
2024/02/07 12:14:37;;;;;;;2.88;0.68;;;7.60;99.90;;;;;;5063540;28;20314;-73
2024/02/07 12:17:03;;;;;;;2.70;0.70;;;7.60;99.90;;;;;;5084885;28;20307;-73
2024/02/07 12:19:28;;;;;;;2.30;0.60;;;7.40;99.90;;;;;;5084590;28;20195;-73
2024/02/07 12:21:54;;;;;;;3.20;0.73;;;7.30;99.90;;;;;;5089694;28;20199;-71
2024/02/07 12:24:20;;;;;;;2.43;0.60;;;7.30;99.90;;;;;;5069869;28;20577;-72
2024/02/07 12:26:45;;;;;;;2.63;0.77;;;7.20;99.90;;;;;;5079262;28;20175;-72
2024/02/07 12:29:11;;;;;;;2.07;0.80;;;7.20;99.90;;;;;;5067162;28;20210;-72
2024/02/07 12:31:37;;;;;;;2.73;0.63;;;7.20;99.90;;;;;;5059017;28;20210;-73
2024/02/07 12:34:02;;;;;;;2.30;0.87;;;7.20;99.90;;;;;;5069303;28;20249;-72
2024/02/07 12:36:28;;;;;;;4.00;1.00;;;7.20;99.90;;;;;;5088859;28;20173;-72
2024/02/07 12:38:54;;;;;;;3.72;1.20;;;7.10;99.90;;;;;;5066918;28;20200;-72
2024/02/07 12:41:20;;;;;;;2.17;1.00;;;7.10;99.90;;;;;;5070728;28;20204;-72
2024/02/07 12:43:45;;;;;;;3.60;1.00;;;7.00;99.90;;;;;;5052707;28;20218;-72
2024/02/07 12:46:11;;;;;;;4.83;2.30;;;6.90;99.90;;;;;;5067126;28;20172;-72
2024/02/07 12:48:37;;;;;;;4.60;1.60;;;6.90;99.90;;;;;;5092353;28;20736;-72
2024/02/07 12:51:04;;;;;;;5.55;1.60;;;6.80;99.90;;;;;;5083942;28;20610;-72
2024/02/07 12:53:30;;;;;;;2.88;1.17;;;6.80;99.90;;;;;;5091686;28;20175;-72
2024/02/07 12:55:56;;;;;;;2.90;1.07;;;6.80;99.90;;;;;;5092576;28;20555;-72
2024/02/07 12:58:22;;;;;;;4.70;1.43;;;6.70;99.90;;;;;;5070060;28;20617;-72
2024/02/07 13:00:47;;;;;;;4.00;1.50;;;6.60;99.90;;;;;;5064677;28;20564;-72
2024/02/07 13:03:13;;;;;;;4.53;1.10;;;6.50;99.90;;;;;;5054680;28;20953;-72
2024/02/07 13:05:39;;;;;;;2.90;1.00;;;6.40;99.90;;;;;;5083285;28;20180;-72
2024/02/07 13:08:09;;;;;;;6.18;1.50;;;6.40;99.90;;;;;;5073331;28;20335;-71
2024/02/07 13:10:37;;;;;;;2.00;1.10;;;6.40;99.90;;;;;;5074194;28;20179;-72
2024/02/07 13:13:04;;;;;;;2.92;0.82;;;6.40;99.90;;;;;;5073813;28;20579;-72
2024/02/07 13:15:29;;;;;;;6.00;0.73;;;6.40;99.90;;;;;;5091439;28;20262;-72
2024/02/07 13:17:55;;;;;;;2.13;1.10;;;6.40;99.90;;;;;;5070240;28;20342;-72
2024/02/07 13:20:21;;;;;;;3.70;1.57;;;6.50;99.90;;;;;;5091277;28;20204;-72
2024/02/07 13:22:47;;;;;;;3.50;1.73;;;6.50;99.90;;;;;;5091567;28;20190;-72
2024/02/07 13:25:13;;;;;;;4.00;1.27;;;6.40;99.90;;;;;;5056449;28;20175;-72
2024/02/07 13:27:42;;;;;;;3.60;1.23;;;6.50;99.90;;;;;;5073084;28;20605;-71
2024/02/07 13:30:09;;;;;;;3.15;0.80;;;6.50;99.90;;;;;;5091833;28;20183;-72
2024/02/07 13:32:35;;;;;;;2.17;0.90;;;6.50;99.90;;;;;;5091722;28;20184;-72
2024/02/07 13:35:01;;;;;;;2.78;0.82;;;6.50;99.90;;;;;;5090828;28;20593;-71
2024/02/07 13:37:27;;;;;;;1.63;0.70;;;6.50;99.90;;;;;;5091132;28;20180;-71
2024/02/07 13:39:54;;;;;;;1.80;1.10;;;6.60;99.90;;;;;;5091570;28;20203;-71
2024/02/07 13:42:20;;;;;;;1.98;0.70;;;6.60;99.90;;;;;;5073308;28;20263;-72
2024/02/07 13:44:46;;;;;;;3.25;0.80;;;6.60;99.90;;;;;;5072892;28;20271;-71
2024/02/07 13:47:12;;;;;;;2.17;0.70;;;6.70;99.90;;;;;;5073028;28;20814;-71
2024/02/07 13:49:37;;;;;;;3.10;0.80;;;6.80;99.90;;;;;;5073067;28;20230;-72
2024/02/07 13:52:03;;;;;;;1.80;0.80;;;6.80;99.90;;;;;;5072632;28;20186;-71
2024/02/07 13:54:29;;;;;;;2.85;0.98;;;6.80;99.90;;;;;;5090920;28;20174;-72